sensor_id;sensor_type;location;lat;lon;timestamp;P1;durP1;ratioP1;P2;durP2;ratioP2
46721;SDS011;32455;43.430;23.136;2022-08-21T00:00:35;11.90;;;5.80;;
46721;SDS011;32455;43.430;23.136;2022-08-21T00:03:22;12.90;;;5.90;;
46721;SDS011;32455;43.430;23.136;2022-08-21T00:06:07;10.38;;;6.10;;
46721;SDS011;32455;43.430;23.136;2022-08-21T00:08:52;10.73;;;5.72;;
46721;SDS011;32455;43.430;23.136;2022-08-21T00:11:37;14.85;;;5.07;;
46721;SDS011;32455;43.430;23.136;2022-08-21T00:14:23;16.05;;;5.65;;
46721;SDS011;32455;43.430;23.136;2022-08-21T00:17:08;10.32;;;5.70;;
46721;SDS011;32455;43.430;23.136;2022-08-21T00:19:52;10.82;;;5.80;;
46721;SDS011;32455;43.430;23.136;2022-08-21T00:22:37;15.80;;;6.15;;
46721;SDS011;32455;43.430;23.136;2022-08-21T00:25:22;9.23;;;5.70;;
46721;SDS011;32455;43.430;23.136;2022-08-21T00:28:06;10.75;;;5.70;;
46721;SDS011;32455;43.430;23.136;2022-08-21T00:30:51;9.27;;;5.47;;
46721;SDS011;32455;43.430;23.136;2022-08-21T00:33:36;13.77;;;5.78;;
46721;SDS011;32455;43.430;23.136;2022-08-21T00:36:20;12.63;;;5.90;;
46721;SDS011;32455;43.430;23.136;2022-08-21T00:39:06;13.25;;;7.05;;
46721;SDS011;32455;43.430;23.136;2022-08-21T00:41:51;15.77;;;5.72;;
46721;SDS011;32455;43.430;23.136;2022-08-21T00:44:36;13.25;;;6.72;;
46721;SDS011;32455;43.430;23.136;2022-08-21T00:47:20;12.95;;;7.07;;
46721;SDS011;32455;43.430;23.136;2022-08-21T00:50:06;11.80;;;6.15;;
46721;SDS011;32455;43.430;23.136;2022-08-21T00:52:52;9.20;;;6.25;;
46721;SDS011;32455;43.430;23.136;2022-08-21T00:55:37;11.77;;;6.47;;
46721;SDS011;32455;43.430;23.136;2022-08-21T00:58:23;10.55;;;6.35;;
46721;SDS011;32455;43.430;23.136;2022-08-21T01:01:12;15.95;;;7.18;;
46721;SDS011;32455;43.430;23.136;2022-08-21T01:03:57;14.07;;;6.40;;
46721;SDS011;32455;43.430;23.136;2022-08-21T01:06:42;10.27;;;6.38;;
46721;SDS011;32455;43.430;23.136;2022-08-21T01:09:27;8.75;;;6.43;;
46721;SDS011;32455;43.430;23.136;2022-08-21T01:12:12;10.95;;;6.70;;
46721;SDS011;32455;43.430;23.136;2022-08-21T01:14:57;11.27;;;6.47;;
46721;SDS011;32455;43.430;23.136;2022-08-21T01:17:42;15.93;;;6.53;;
46721;SDS011;32455;43.430;23.136;2022-08-21T01:20:27;11.43;;;5.63;;
46721;SDS011;32455;43.430;23.136;2022-08-21T01:23:11;8.75;;;5.95;;
46721;SDS011;32455;43.430;23.136;2022-08-21T01:25:56;8.20;;;6.38;;
46721;SDS011;32455;43.430;23.136;2022-08-21T01:28:42;12.07;;;6.65;;
46721;SDS011;32455;43.430;23.136;2022-08-21T01:34:19;14.70;;;6.40;;
46721;SDS011;32455;43.430;23.136;2022-08-21T01:37:04;11.18;;;5.85;;
46721;SDS011;32455;43.430;23.136;2022-08-21T01:39:49;10.55;;;6.13;;
46721;SDS011;32455;43.430;23.136;2022-08-21T01:42:34;6.53;;;5.43;;
46721;SDS011;32455;43.430;23.136;2022-08-21T01:45:20;9.68;;;5.90;;
46721;SDS011;32455;43.430;23.136;2022-08-21T01:48:05;7.32;;;5.68;;
46721;SDS011;32455;43.430;23.136;2022-08-21T01:50:50;10.57;;;6.40;;
46721;SDS011;32455;43.430;23.136;2022-08-21T01:53:34;13.23;;;6.20;;
46721;SDS011;32455;43.430;23.136;2022-08-21T01:56:21;8.65;;;5.88;;
46721;SDS011;32455;43.430;23.136;2022-08-21T01:59:07;12.30;;;6.53;;
46721;SDS011;32455;43.430;23.136;2022-08-21T02:01:52;15.05;;;6.30;;
46721;SDS011;32455;43.430;23.136;2022-08-21T02:04:40;10.68;;;6.40;;
46721;SDS011;32455;43.430;23.136;2022-08-21T02:07:25;10.00;;;6.50;;
46721;SDS011;32455;43.430;23.136;2022-08-21T02:10:11;14.88;;;6.75;;
46721;SDS011;32455;43.430;23.136;2022-08-21T02:12:58;10.93;;;7.07;;
46721;SDS011;32455;43.430;23.136;2022-08-21T02:15:45;12.18;;;6.85;;
46721;SDS011;32455;43.430;23.136;2022-08-21T02:18:30;10.15;;;6.63;;
46721;SDS011;32455;43.430;23.136;2022-08-21T02:21:16;11.98;;;6.47;;
46721;SDS011;32455;43.430;23.136;2022-08-21T02:24:00;7.60;;;5.97;;
46721;SDS011;32455;43.430;23.136;2022-08-21T02:26:45;8.52;;;5.72;;
46721;SDS011;32455;43.430;23.136;2022-08-21T02:29:29;9.00;;;5.68;;
46721;SDS011;32455;43.430;23.136;2022-08-21T02:32:16;9.43;;;5.55;;
46721;SDS011;32455;43.430;23.136;2022-08-21T02:35:01;9.20;;;5.05;;
46721;SDS011;32455;43.430;23.136;2022-08-21T02:37:48;8.13;;;5.55;;
46721;SDS011;32455;43.430;23.136;2022-08-21T02:40:36;10.55;;;5.63;;
46721;SDS011;32455;43.430;23.136;2022-08-21T02:43:24;11.43;;;5.22;;
46721;SDS011;32455;43.430;23.136;2022-08-21T02:46:11;10.32;;;4.85;;
46721;SDS011;32455;43.430;23.136;2022-08-21T02:48:57;14.35;;;5.60;;
46721;SDS011;32455;43.430;23.136;2022-08-21T02:51:42;11.88;;;5.13;;
46721;SDS011;32455;43.430;23.136;2022-08-21T02:54:27;11.73;;;5.20;;
46721;SDS011;32455;43.430;23.136;2022-08-21T02:57:13;10.25;;;4.85;;
46721;SDS011;32455;43.430;23.136;2022-08-21T02:59:58;8.93;;;4.43;;
46721;SDS011;32455;43.430;23.136;2022-08-21T03:02:44;10.40;;;4.28;;
46721;SDS011;32455;43.430;23.136;2022-08-21T03:05:31;10.32;;;4.55;;
46721;SDS011;32455;43.430;23.136;2022-08-21T03:08:17;7.57;;;4.93;;
46721;SDS011;32455;43.430;23.136;2022-08-21T03:11:02;7.82;;;4.97;;
46721;SDS011;32455;43.430;23.136;2022-08-21T03:13:47;8.75;;;4.70;;
46721;SDS011;32455;43.430;23.136;2022-08-21T03:16:33;10.98;;;4.70;;
46721;SDS011;32455;43.430;23.136;2022-08-21T03:19:19;9.43;;;5.25;;
46721;SDS011;32455;43.430;23.136;2022-08-21T03:22:06;8.63;;;4.05;;
46721;SDS011;32455;43.430;23.136;2022-08-21T03:24:52;5.43;;;4.22;;
46721;SDS011;32455;43.430;23.136;2022-08-21T03:27:37;13.35;;;4.40;;
46721;SDS011;32455;43.430;23.136;2022-08-21T03:30:22;13.68;;;4.43;;
46721;SDS011;32455;43.430;23.136;2022-08-21T03:33:08;12.75;;;4.40;;
46721;SDS011;32455;43.430;23.136;2022-08-21T03:35:56;11.48;;;4.20;;
46721;SDS011;32455;43.430;23.136;2022-08-21T03:38:49;14.98;;;4.78;;
46721;SDS011;32455;43.430;23.136;2022-08-21T03:41:33;6.00;;;4.00;;
46721;SDS011;32455;43.430;23.136;2022-08-21T03:44:19;5.53;;;3.65;;
46721;SDS011;32455;43.430;23.136;2022-08-21T03:47:04;5.68;;;4.10;;
46721;SDS011;32455;43.430;23.136;2022-08-21T03:49:50;10.18;;;4.38;;
46721;SDS011;32455;43.430;23.136;2022-08-21T03:52:35;11.13;;;4.03;;
46721;SDS011;32455;43.430;23.136;2022-08-21T03:55:20;7.10;;;4.13;;
46721;SDS011;32455;43.430;23.136;2022-08-21T03:58:07;8.07;;;4.03;;
46721;SDS011;32455;43.430;23.136;2022-08-21T04:00:58;7.68;;;3.80;;
46721;SDS011;32455;43.430;23.136;2022-08-21T04:03:45;13.70;;;4.43;;
46721;SDS011;32455;43.430;23.136;2022-08-21T04:06:30;11.23;;;4.55;;
46721;SDS011;32455;43.430;23.136;2022-08-21T04:09:17;8.55;;;4.22;;
46721;SDS011;32455;43.430;23.136;2022-08-21T04:12:02;9.18;;;4.30;;
46721;SDS011;32455;43.430;23.136;2022-08-21T04:14:48;6.85;;;4.25;;
46721;SDS011;32455;43.430;23.136;2022-08-21T04:17:33;10.35;;;4.47;;
46721;SDS011;32455;43.430;23.136;2022-08-21T04:20:19;5.50;;;3.95;;
46721;SDS011;32455;43.430;23.136;2022-08-21T04:23:08;7.55;;;4.60;;
46721;SDS011;32455;43.430;23.136;2022-08-21T04:25:53;10.70;;;4.65;;
46721;SDS011;32455;43.430;23.136;2022-08-21T04:28:41;9.73;;;4.57;;
46721;SDS011;32455;43.430;23.136;2022-08-21T04:31:25;7.63;;;4.50;;
46721;SDS011;32455;43.430;23.136;2022-08-21T04:34:11;4.80;;;3.85;;
46721;SDS011;32455;43.430;23.136;2022-08-21T04:37:03;6.78;;;4.40;;
46721;SDS011;32455;43.430;23.136;2022-08-21T04:39:49;7.10;;;4.65;;
46721;SDS011;32455;43.430;23.136;2022-08-21T04:42:40;7.65;;;4.78;;
46721;SDS011;32455;43.430;23.136;2022-08-21T04:48:21;9.10;;;4.22;;
46721;SDS011;32455;43.430;23.136;2022-08-21T04:51:16;7.18;;;3.88;;
46721;SDS011;32455;43.430;23.136;2022-08-21T04:54:15;6.32;;;4.03;;
46721;SDS011;32455;43.430;23.136;2022-08-21T04:57:07;11.20;;;4.45;;
46721;SDS011;32455;43.430;23.136;2022-08-21T04:59:55;9.98;;;5.07;;
46721;SDS011;32455;43.430;23.136;2022-08-21T05:02:40;6.50;;;4.00;;
46721;SDS011;32455;43.430;23.136;2022-08-21T05:05:27;6.20;;;4.03;;
46721;SDS011;32455;43.430;23.136;2022-08-21T05:08:16;10.07;;;4.50;;
46721;SDS011;32455;43.430;23.136;2022-08-21T05:11:04;5.20;;;4.00;;
46721;SDS011;32455;43.430;23.136;2022-08-21T05:13:50;9.07;;;4.18;;
46721;SDS011;32455;43.430;23.136;2022-08-21T05:16:35;8.93;;;3.55;;
46721;SDS011;32455;43.430;23.136;2022-08-21T05:19:21;10.02;;;4.10;;
46721;SDS011;32455;43.430;23.136;2022-08-21T05:22:08;6.80;;;3.83;;
46721;SDS011;32455;43.430;23.136;2022-08-21T05:24:54;4.82;;;3.47;;
46721;SDS011;32455;43.430;23.136;2022-08-21T05:27:41;8.35;;;3.20;;
46721;SDS011;32455;43.430;23.136;2022-08-21T05:30:28;7.95;;;3.47;;
46721;SDS011;32455;43.430;23.136;2022-08-21T05:33:13;6.35;;;3.50;;
46721;SDS011;32455;43.430;23.136;2022-08-21T05:35:58;4.90;;;3.08;;
46721;SDS011;32455;43.430;23.136;2022-08-21T05:38:43;9.30;;;4.18;;
46721;SDS011;32455;43.430;23.136;2022-08-21T05:41:28;11.30;;;4.15;;
46721;SDS011;32455;43.430;23.136;2022-08-21T05:44:13;6.07;;;3.65;;
46721;SDS011;32455;43.430;23.136;2022-08-21T05:47:03;7.45;;;3.85;;
46721;SDS011;32455;43.430;23.136;2022-08-21T05:49:49;9.43;;;3.63;;
46721;SDS011;32455;43.430;23.136;2022-08-21T05:52:34;12.15;;;4.03;;
46721;SDS011;32455;43.430;23.136;2022-08-21T05:55:20;7.65;;;4.68;;
46721;SDS011;32455;43.430;23.136;2022-08-21T05:58:05;6.63;;;3.83;;
46721;SDS011;32455;43.430;23.136;2022-08-21T06:00:52;8.02;;;3.88;;
46721;SDS011;32455;43.430;23.136;2022-08-21T06:03:38;4.78;;;3.97;;
46721;SDS011;32455;43.430;23.136;2022-08-21T06:06:23;7.47;;;4.43;;
46721;SDS011;32455;43.430;23.136;2022-08-21T06:09:09;6.55;;;4.10;;
46721;SDS011;32455;43.430;23.136;2022-08-21T06:11:54;11.13;;;4.18;;
46721;SDS011;32455;43.430;23.136;2022-08-21T06:14:40;6.18;;;4.57;;
46721;SDS011;32455;43.430;23.136;2022-08-21T06:17:25;7.68;;;4.88;;
46721;SDS011;32455;43.430;23.136;2022-08-21T06:20:10;11.98;;;4.90;;
46721;SDS011;32455;43.430;23.136;2022-08-21T06:22:55;6.82;;;4.30;;
46721;SDS011;32455;43.430;23.136;2022-08-21T06:25:40;9.00;;;4.78;;
46721;SDS011;32455;43.430;23.136;2022-08-21T06:28:24;9.20;;;5.32;;
46721;SDS011;32455;43.430;23.136;2022-08-21T06:31:16;7.88;;;4.90;;
46721;SDS011;32455;43.430;23.136;2022-08-21T06:34:02;10.93;;;4.88;;
46721;SDS011;32455;43.430;23.136;2022-08-21T06:36:47;12.07;;;4.45;;
46721;SDS011;32455;43.430;23.136;2022-08-21T06:39:32;13.07;;;4.05;;
46721;SDS011;32455;43.430;23.136;2022-08-21T06:42:17;7.53;;;3.97;;
46721;SDS011;32455;43.430;23.136;2022-08-21T06:45:03;3.90;;;3.22;;
46721;SDS011;32455;43.430;23.136;2022-08-21T06:47:48;5.57;;;4.05;;
46721;SDS011;32455;43.430;23.136;2022-08-21T06:50:33;6.68;;;4.07;;
46721;SDS011;32455;43.430;23.136;2022-08-21T06:53:20;8.57;;;4.38;;
46721;SDS011;32455;43.430;23.136;2022-08-21T06:56:05;11.93;;;4.47;;
46721;SDS011;32455;43.430;23.136;2022-08-21T06:58:50;8.60;;;5.32;;
46721;SDS011;32455;43.430;23.136;2022-08-21T07:01:37;7.82;;;5.78;;
46721;SDS011;32455;43.430;23.136;2022-08-21T07:04:23;12.27;;;6.45;;
46721;SDS011;32455;43.430;23.136;2022-08-21T07:07:07;13.40;;;7.35;;
46721;SDS011;32455;43.430;23.136;2022-08-21T07:09:52;12.52;;;6.75;;
46721;SDS011;32455;43.430;23.136;2022-08-21T07:12:37;12.02;;;6.93;;
46721;SDS011;32455;43.430;23.136;2022-08-21T07:15:23;11.13;;;6.75;;
46721;SDS011;32455;43.430;23.136;2022-08-21T07:18:08;13.40;;;7.95;;
46721;SDS011;32455;43.430;23.136;2022-08-21T07:20:54;13.90;;;7.00;;
46721;SDS011;32455;43.430;23.136;2022-08-21T07:23:41;11.02;;;7.30;;
46721;SDS011;32455;43.430;23.136;2022-08-21T07:26:29;11.52;;;6.97;;
46721;SDS011;32455;43.430;23.136;2022-08-21T07:29:15;15.40;;;7.85;;
46721;SDS011;32455;43.430;23.136;2022-08-21T07:32:01;11.98;;;9.65;;
46721;SDS011;32455;43.430;23.136;2022-08-21T07:34:46;13.30;;;8.43;;
46721;SDS011;32455;43.430;23.136;2022-08-21T07:37:32;15.93;;;7.65;;
46721;SDS011;32455;43.430;23.136;2022-08-21T07:40:17;12.50;;;7.32;;
46721;SDS011;32455;43.430;23.136;2022-08-21T07:43:03;15.57;;;8.63;;
46721;SDS011;32455;43.430;23.136;2022-08-21T07:45:48;16.00;;;7.88;;
46721;SDS011;32455;43.430;23.136;2022-08-21T07:48:36;18.98;;;8.07;;
46721;SDS011;32455;43.430;23.136;2022-08-21T07:51:23;14.30;;;8.27;;
46721;SDS011;32455;43.430;23.136;2022-08-21T07:54:11;12.73;;;8.48;;
46721;SDS011;32455;43.430;23.136;2022-08-21T07:56:56;16.05;;;8.27;;
46721;SDS011;32455;43.430;23.136;2022-08-21T07:59:40;12.52;;;7.93;;
46721;SDS011;32455;43.430;23.136;2022-08-21T08:02:29;14.88;;;8.30;;
46721;SDS011;32455;43.430;23.136;2022-08-21T08:05:15;16.35;;;8.38;;
46721;SDS011;32455;43.430;23.136;2022-08-21T08:08:01;12.77;;;8.98;;
46721;SDS011;32455;43.430;23.136;2022-08-21T08:10:47;16.15;;;8.60;;
46721;SDS011;32455;43.430;23.136;2022-08-21T08:13:43;15.25;;;8.90;;
46721;SDS011;32455;43.430;23.136;2022-08-21T08:16:31;16.17;;;9.13;;
46721;SDS011;32455;43.430;23.136;2022-08-21T08:19:17;12.75;;;8.43;;
46721;SDS011;32455;43.430;23.136;2022-08-21T08:22:11;15.65;;;9.05;;
46721;SDS011;32455;43.430;23.136;2022-08-21T08:24:59;14.80;;;9.35;;
46721;SDS011;32455;43.430;23.136;2022-08-21T08:27:45;16.33;;;8.75;;
46721;SDS011;32455;43.430;23.136;2022-08-21T08:30:31;12.98;;;8.98;;
46721;SDS011;32455;43.430;23.136;2022-08-21T08:33:16;20.55;;;10.15;;
46721;SDS011;32455;43.430;23.136;2022-08-21T08:36:05;19.95;;;9.02;;
46721;SDS011;32455;43.430;23.136;2022-08-21T08:38:57;18.15;;;9.07;;
46721;SDS011;32455;43.430;23.136;2022-08-21T08:41:43;15.95;;;8.35;;
46721;SDS011;32455;43.430;23.136;2022-08-21T08:44:32;16.20;;;9.45;;
46721;SDS011;32455;43.430;23.136;2022-08-21T08:47:19;24.15;;;9.68;;
46721;SDS011;32455;43.430;23.136;2022-08-21T08:50:06;17.08;;;8.70;;
46721;SDS011;32455;43.430;23.136;2022-08-21T08:53:02;13.52;;;7.68;;
46721;SDS011;32455;43.430;23.136;2022-08-21T08:55:52;14.85;;;8.23;;
46721;SDS011;32455;43.430;23.136;2022-08-21T08:58:39;14.43;;;7.95;;
46721;SDS011;32455;43.430;23.136;2022-08-21T09:01:28;14.10;;;8.25;;
46721;SDS011;32455;43.430;23.136;2022-08-21T09:04:14;13.77;;;8.48;;
46721;SDS011;32455;43.430;23.136;2022-08-21T09:07:50;13.90;;;9.07;;
46721;SDS011;32455;43.430;23.136;2022-08-21T09:17:36;19.33;;;8.85;;
46721;SDS011;32455;43.430;23.136;2022-08-21T09:23:20;12.65;;;7.57;;
46721;SDS011;32455;43.430;23.136;2022-08-21T09:26:21;10.18;;;6.85;;
46721;SDS011;32455;43.430;23.136;2022-08-21T09:29:11;16.63;;;8.02;;
46721;SDS011;32455;43.430;23.136;2022-08-21T09:31:57;12.90;;;7.55;;
46721;SDS011;32455;43.430;23.136;2022-08-21T09:34:43;12.00;;;7.38;;
46721;SDS011;32455;43.430;23.136;2022-08-21T09:37:59;16.08;;;7.97;;
46721;SDS011;32455;43.430;23.136;2022-08-21T09:40:47;13.65;;;7.43;;
46721;SDS011;32455;43.430;23.136;2022-08-21T09:43:51;20.15;;;9.63;;
46721;SDS011;32455;43.430;23.136;2022-08-21T09:46:38;14.05;;;9.02;;
46721;SDS011;32455;43.430;23.136;2022-08-21T09:49:37;15.10;;;8.82;;
46721;SDS011;32455;43.430;23.136;2022-08-21T09:52:25;19.80;;;10.43;;
46721;SDS011;32455;43.430;23.136;2022-08-21T09:55:32;20.17;;;10.73;;
46721;SDS011;32455;43.430;23.136;2022-08-21T09:58:55;15.68;;;9.40;;
46721;SDS011;32455;43.430;23.136;2022-08-21T10:01:44;16.13;;;8.23;;
46721;SDS011;32455;43.430;23.136;2022-08-21T10:04:35;13.10;;;8.23;;
46721;SDS011;32455;43.430;23.136;2022-08-21T10:07:21;17.65;;;8.40;;
46721;SDS011;32455;43.430;23.136;2022-08-21T10:10:17;11.85;;;7.43;;
46721;SDS011;32455;43.430;23.136;2022-08-21T10:19:24;10.02;;;6.95;;
46721;SDS011;32455;43.430;23.136;2022-08-21T10:25:21;9.32;;;7.25;;
46721;SDS011;32455;43.430;23.136;2022-08-21T10:28:19;12.05;;;7.95;;
46721;SDS011;32455;43.430;23.136;2022-08-21T10:31:18;12.30;;;8.25;;
46721;SDS011;32455;43.430;23.136;2022-08-21T10:40:34;12.82;;;7.68;;
46721;SDS011;32455;43.430;23.136;2022-08-21T10:43:33;18.08;;;8.40;;
46721;SDS011;32455;43.430;23.136;2022-08-21T10:49:48;15.02;;;8.15;;
46721;SDS011;32455;43.430;23.136;2022-08-21T10:53:36;12.35;;;8.10;;
46721;SDS011;32455;43.430;23.136;2022-08-21T10:56:17;11.70;;;7.88;;
46721;SDS011;32455;43.430;23.136;2022-08-21T10:59:20;16.85;;;8.52;;
46721;SDS011;32455;43.430;23.136;2022-08-21T11:02:20;11.65;;;8.10;;
46721;SDS011;32455;43.430;23.136;2022-08-21T11:08:39;15.30;;;7.78;;
46721;SDS011;32455;43.430;23.136;2022-08-21T11:11:36;11.15;;;6.93;;
46721;SDS011;32455;43.430;23.136;2022-08-21T11:14:39;7.93;;;6.78;;
46721;SDS011;32455;43.430;23.136;2022-08-21T11:17:37;11.85;;;6.90;;
46721;SDS011;32455;43.430;23.136;2022-08-21T11:20:33;11.45;;;6.75;;
46721;SDS011;32455;43.430;23.136;2022-08-21T11:26:50;12.40;;;6.78;;
46721;SDS011;32455;43.430;23.136;2022-08-21T11:29:44;8.40;;;6.47;;
46721;SDS011;32455;43.430;23.136;2022-08-21T11:38:35;6.50;;;5.78;;
46721;SDS011;32455;43.430;23.136;2022-08-21T11:41:38;13.50;;;6.80;;
46721;SDS011;32455;43.430;23.136;2022-08-21T11:47:33;13.60;;;6.65;;
46721;SDS011;32455;43.430;23.136;2022-08-21T11:50:40;13.00;;;6.90;;
46721;SDS011;32455;43.430;23.136;2022-08-21T11:56:18;20.98;;;7.47;;
46721;SDS011;32455;43.430;23.136;2022-08-21T11:59:13;10.88;;;5.57;;
46721;SDS011;32455;43.430;23.136;2022-08-21T12:02:12;9.77;;;6.38;;
46721;SDS011;32455;43.430;23.136;2022-08-21T12:05:09;13.75;;;6.15;;
46721;SDS011;32455;43.430;23.136;2022-08-21T12:16:51;8.73;;;5.80;;
46721;SDS011;32455;43.430;23.136;2022-08-21T12:19:36;12.30;;;6.13;;
46721;SDS011;32455;43.430;23.136;2022-08-21T12:22:22;12.50;;;6.13;;
46721;SDS011;32455;43.430;23.136;2022-08-21T12:25:21;12.50;;;5.85;;
46721;SDS011;32455;43.430;23.136;2022-08-21T12:28:08;11.25;;;6.15;;
46721;SDS011;32455;43.430;23.136;2022-08-21T12:30:56;8.25;;;5.85;;
46721;SDS011;32455;43.430;23.136;2022-08-21T12:33:42;7.32;;;5.97;;
46721;SDS011;32455;43.430;23.136;2022-08-21T12:36:57;6.85;;;5.72;;
46721;SDS011;32455;43.430;23.136;2022-08-21T12:39:46;9.27;;;6.50;;
46721;SDS011;32455;43.430;23.136;2022-08-21T12:42:44;11.00;;;6.05;;
46721;SDS011;32455;43.430;23.136;2022-08-21T12:45:40;12.73;;;6.10;;
46721;SDS011;32455;43.430;23.136;2022-08-21T12:48:29;12.63;;;5.45;;
46721;SDS011;32455;43.430;23.136;2022-08-21T12:52:09;10.63;;;6.13;;
46721;SDS011;32455;43.430;23.136;2022-08-21T12:54:51;11.20;;;6.25;;
46721;SDS011;32455;43.430;23.136;2022-08-21T12:57:36;9.30;;;5.45;;
46721;SDS011;32455;43.430;23.136;2022-08-21T13:00:26;8.13;;;5.55;;
46721;SDS011;32455;43.430;23.136;2022-08-21T13:03:14;13.88;;;5.93;;
46721;SDS011;32455;43.430;23.136;2022-08-21T13:06:02;15.63;;;5.70;;
46721;SDS011;32455;43.430;23.136;2022-08-21T13:08:51;10.75;;;5.57;;
46721;SDS011;32455;43.430;23.136;2022-08-21T13:11:42;13.55;;;5.80;;
46721;SDS011;32455;43.430;23.136;2022-08-21T13:14:38;13.23;;;4.65;;
46721;SDS011;32455;43.430;23.136;2022-08-21T13:17:27;7.63;;;5.00;;
46721;SDS011;32455;43.430;23.136;2022-08-21T13:20:24;9.00;;;6.20;;
46721;SDS011;32455;43.430;23.136;2022-08-21T13:23:24;12.80;;;4.97;;
46721;SDS011;32455;43.430;23.136;2022-08-21T13:26:17;10.18;;;4.32;;
46721;SDS011;32455;43.430;23.136;2022-08-21T13:29:07;10.40;;;5.32;;
46721;SDS011;32455;43.430;23.136;2022-08-21T13:32:04;9.82;;;4.50;;
46721;SDS011;32455;43.430;23.136;2022-08-21T13:34:53;8.10;;;5.45;;
46721;SDS011;32455;43.430;23.136;2022-08-21T13:37:39;8.20;;;5.50;;
46721;SDS011;32455;43.430;23.136;2022-08-21T13:40:28;7.13;;;5.28;;
46721;SDS011;32455;43.430;23.136;2022-08-21T13:43:17;10.55;;;4.85;;
46721;SDS011;32455;43.430;23.136;2022-08-21T13:46:10;8.40;;;5.07;;
46721;SDS011;32455;43.430;23.136;2022-08-21T13:49:01;8.20;;;5.78;;
46721;SDS011;32455;43.430;23.136;2022-08-21T13:51:48;9.93;;;5.22;;
46721;SDS011;32455;43.430;23.136;2022-08-21T13:54:38;6.80;;;5.03;;
46721;SDS011;32455;43.430;23.136;2022-08-21T13:57:29;10.70;;;5.75;;
46721;SDS011;32455;43.430;23.136;2022-08-21T14:00:17;12.32;;;5.22;;
46721;SDS011;32455;43.430;23.136;2022-08-21T14:03:10;8.32;;;4.13;;
46721;SDS011;32455;43.430;23.136;2022-08-21T14:06:17;8.77;;;5.55;;
46721;SDS011;32455;43.430;23.136;2022-08-21T14:09:13;5.65;;;4.60;;
46721;SDS011;32455;43.430;23.136;2022-08-21T14:12:19;7.85;;;3.47;;
46721;SDS011;32455;43.430;23.136;2022-08-21T14:15:17;4.68;;;2.92;;
46721;SDS011;32455;43.430;23.136;2022-08-21T14:18:14;5.20;;;3.60;;
46721;SDS011;32455;43.430;23.136;2022-08-21T14:21:06;4.80;;;2.90;;
46721;SDS011;32455;43.430;23.136;2022-08-21T14:24:02;5.38;;;3.53;;
46721;SDS011;32455;43.430;23.136;2022-08-21T14:27:02;3.63;;;3.20;;
46721;SDS011;32455;43.430;23.136;2022-08-21T14:32:42;4.13;;;3.30;;
46721;SDS011;32455;43.430;23.136;2022-08-21T14:35:27;4.20;;;3.28;;
46721;SDS011;32455;43.430;23.136;2022-08-21T14:38:14;10.77;;;4.88;;
46721;SDS011;32455;43.430;23.136;2022-08-21T14:41:04;11.38;;;4.60;;
46721;SDS011;32455;43.430;23.136;2022-08-21T14:44:04;12.73;;;6.65;;
46721;SDS011;32455;43.430;23.136;2022-08-21T14:46:51;22.15;;;8.38;;
46721;SDS011;32455;43.430;23.136;2022-08-21T14:49:39;17.65;;;9.63;;
46721;SDS011;32455;43.430;23.136;2022-08-21T14:52:31;18.80;;;10.40;;
46721;SDS011;32455;43.430;23.136;2022-08-21T14:55:20;14.00;;;7.82;;
46721;SDS011;32455;43.430;23.136;2022-08-21T14:58:06;18.48;;;8.35;;
46721;SDS011;32455;43.430;23.136;2022-08-21T15:00:51;16.20;;;7.63;;
46721;SDS011;32455;43.430;23.136;2022-08-21T15:03:40;17.75;;;8.98;;
46721;SDS011;32455;43.430;23.136;2022-08-21T15:06:26;11.05;;;8.68;;
46721;SDS011;32455;43.430;23.136;2022-08-21T15:09:12;15.38;;;8.15;;
46721;SDS011;32455;43.430;23.136;2022-08-21T15:11:58;8.50;;;6.47;;
46721;SDS011;32455;43.430;23.136;2022-08-21T15:14:46;11.30;;;7.57;;
46721;SDS011;32455;43.430;23.136;2022-08-21T15:17:31;14.50;;;8.10;;
46721;SDS011;32455;43.430;23.136;2022-08-21T15:20:17;18.13;;;8.73;;
46721;SDS011;32455;43.430;23.136;2022-08-21T15:23:04;11.70;;;7.50;;
46721;SDS011;32455;43.430;23.136;2022-08-21T15:25:50;11.90;;;7.88;;
46721;SDS011;32455;43.430;23.136;2022-08-21T15:28:38;8.77;;;7.30;;
46721;SDS011;32455;43.430;23.136;2022-08-21T15:31:23;10.60;;;7.82;;
46721;SDS011;32455;43.430;23.136;2022-08-21T15:34:08;10.25;;;7.43;;
46721;SDS011;32455;43.430;23.136;2022-08-21T15:36:54;13.63;;;7.82;;
46721;SDS011;32455;43.430;23.136;2022-08-21T15:39:41;13.02;;;8.43;;
46721;SDS011;32455;43.430;23.136;2022-08-21T15:42:26;12.80;;;8.88;;
46721;SDS011;32455;43.430;23.136;2022-08-21T15:45:12;13.65;;;8.43;;
46721;SDS011;32455;43.430;23.136;2022-08-21T15:47:58;15.20;;;9.07;;
46721;SDS011;32455;43.430;23.136;2022-08-21T15:50:44;15.82;;;10.35;;
46721;SDS011;32455;43.430;23.136;2022-08-21T15:53:30;11.68;;;8.93;;
46721;SDS011;32455;43.430;23.136;2022-08-21T15:56:24;9.48;;;8.50;;
46721;SDS011;32455;43.430;23.136;2022-08-21T15:59:15;10.23;;;8.40;;
46721;SDS011;32455;43.430;23.136;2022-08-21T16:02:08;13.10;;;9.57;;
46721;SDS011;32455;43.430;23.136;2022-08-21T16:05:06;17.38;;;10.88;;
46721;SDS011;32455;43.430;23.136;2022-08-21T16:07:54;17.25;;;10.93;;
46721;SDS011;32455;43.430;23.136;2022-08-21T16:10:39;13.43;;;10.57;;
46721;SDS011;32455;43.430;23.136;2022-08-21T16:13:27;13.55;;;9.38;;
46721;SDS011;32455;43.430;23.136;2022-08-21T16:16:16;13.80;;;9.65;;
46721;SDS011;32455;43.430;23.136;2022-08-21T16:19:03;14.18;;;9.02;;
46721;SDS011;32455;43.430;23.136;2022-08-21T16:21:50;15.85;;;10.35;;
46721;SDS011;32455;43.430;23.136;2022-08-21T16:24:36;62.40;;;26.67;;
46721;SDS011;32455;43.430;23.136;2022-08-21T16:27:21;30.08;;;16.30;;
46721;SDS011;32455;43.430;23.136;2022-08-21T16:30:07;16.70;;;11.70;;
46721;SDS011;32455;43.430;23.136;2022-08-21T16:32:53;17.10;;;11.35;;
46721;SDS011;32455;43.430;23.136;2022-08-21T16:35:39;14.35;;;10.43;;
46721;SDS011;32455;43.430;23.136;2022-08-21T16:38:25;15.05;;;10.52;;
46721;SDS011;32455;43.430;23.136;2022-08-21T16:41:14;12.13;;;10.43;;
46721;SDS011;32455;43.430;23.136;2022-08-21T16:44:03;13.77;;;10.70;;
46721;SDS011;32455;43.430;23.136;2022-08-21T16:46:49;13.65;;;11.82;;
46721;SDS011;32455;43.430;23.136;2022-08-21T16:49:35;16.35;;;12.75;;
46721;SDS011;32455;43.430;23.136;2022-08-21T16:52:21;16.42;;;12.38;;
46721;SDS011;32455;43.430;23.136;2022-08-21T16:55:06;17.45;;;10.90;;
46721;SDS011;32455;43.430;23.136;2022-08-21T16:57:53;15.38;;;11.18;;
46721;SDS011;32455;43.430;23.136;2022-08-21T17:00:40;12.63;;;10.73;;
46721;SDS011;32455;43.430;23.136;2022-08-21T17:03:27;12.25;;;10.60;;
46721;SDS011;32455;43.430;23.136;2022-08-21T17:06:18;23.20;;;15.30;;
46721;SDS011;32455;43.430;23.136;2022-08-21T17:09:05;18.15;;;12.02;;
46721;SDS011;32455;43.430;23.136;2022-08-21T17:11:50;34.35;;;21.52;;
46721;SDS011;32455;43.430;23.136;2022-08-21T17:14:36;23.80;;;16.85;;
46721;SDS011;32455;43.430;23.136;2022-08-21T17:17:21;16.58;;;9.45;;
46721;SDS011;32455;43.430;23.136;2022-08-21T17:20:07;11.18;;;8.10;;
46721;SDS011;32455;43.430;23.136;2022-08-21T17:22:52;10.50;;;7.30;;
46721;SDS011;32455;43.430;23.136;2022-08-21T17:25:39;11.80;;;8.30;;
46721;SDS011;32455;43.430;23.136;2022-08-21T17:28:28;9.68;;;8.32;;
46721;SDS011;32455;43.430;23.136;2022-08-21T17:31:16;10.02;;;8.60;;
46721;SDS011;32455;43.430;23.136;2022-08-21T17:34:02;10.50;;;8.88;;
46721;SDS011;32455;43.430;23.136;2022-08-21T17:36:47;12.63;;;9.98;;